Time;durP1;ratioP1;P1;durP2;ratioP2;P2;SDS_P1;SDS_P2;PMS_P1;PMS_P2;Temp;Humidity;BMP_temperature;BMP_pressure;BME280_temperature;BME280_humidity;BME280_pressure;Samples;Min_cycle;Max_cycle;Signal;HPM_P1;HPM_P2
2021/06/19 00:00:42;;;;;;;15.57;5.15;;;20.50;99.90;;;;;;5060269;28;20033;-77
2021/06/19 00:03:08;;;;;;;17.50;5.97;;;20.40;99.90;;;;;;5058247;28;20036;-77
2021/06/19 00:05:34;;;;;;;18.15;5.50;;;20.40;99.90;;;;;;5061313;28;20044;-77
2021/06/19 00:08:00;;;;;;;22.15;6.00;;;20.40;99.90;;;;;;5059773;28;20032;-77
2021/06/19 00:10:26;;;;;;;18.55;5.75;;;20.40;99.90;;;;;;5057565;28;20033;-75
2021/06/19 00:12:52;;;;;;;15.32;4.90;;;21.20;99.90;;;;;;5051604;28;20028;-75
2021/06/19 00:15:22;;;;;;;19.63;6.43;;;20.50;99.90;;;;;;5050440;28;20021;-77
2021/06/19 00:17:48;;;;;;;21.90;5.47;;;20.60;99.90;;;;;;5051246;28;20021;-76
2021/06/19 00:20:20;;;;;;;19.05;6.03;;;20.70;99.90;;;;;;5050224;28;20537;-76
2021/06/19 00:22:45;;;;;;;23.93;5.70;;;20.60;99.90;;;;;;5050867;28;20025;-76
2021/06/19 00:25:14;;;;;;;22.25;5.88;;;20.80;99.90;;;;;;5051901;28;20447;-76
2021/06/19 00:27:40;;;;;;;17.75;6.25;;;20.90;99.90;;;;;;5051722;28;20104;-76
2021/06/19 00:30:09;;;;;;;16.40;5.78;;;20.90;99.90;;;;;;5049678;28;20033;-76
2021/06/19 00:32:35;;;;;;;18.63;6.60;;;20.80;99.90;;;;;;5051422;28;20025;-76
2021/06/19 00:35:01;;;;;;;18.05;6.57;;;20.80;99.90;;;;;;5050896;28;20386;-76
2021/06/19 00:37:26;;;;;;;15.88;6.20;;;20.80;99.90;;;;;;5053496;28;20021;-77
2021/06/19 00:39:52;;;;;;;20.92;5.57;;;20.90;99.90;;;;;;5053408;28;20119;-76
2021/06/19 00:42:21;;;;;;;18.33;5.70;;;20.80;99.90;;;;;;5055992;28;20021;-76
2021/06/19 00:44:48;;;;;;;21.30;6.15;;;20.80;99.90;;;;;;5057984;28;20025;-75
2021/06/19 00:47:14;;;;;;;23.25;5.88;;;20.80;99.90;;;;;;5059322;28;20020;-76
2021/06/19 00:49:40;;;;;;;16.73;5.82;;;20.80;99.90;;;;;;5056341;28;20100;-76
2021/06/19 00:52:06;;;;;;;13.40;5.28;;;20.90;99.90;;;;;;5056190;28;20494;-76
2021/06/19 00:54:33;;;;;;;17.70;5.82;;;20.90;99.90;;;;;;5055744;28;20029;-76
2021/06/19 00:57:00;;;;;;;16.88;5.88;;;20.90;99.90;;;;;;5054965;28;20505;-76
2021/06/19 00:59:26;;;;;;;17.33;5.50;;;20.90;99.90;;;;;;5054394;28;20059;-76
2021/06/19 01:01:54;;;;;;;18.75;5.70;;;21.00;99.90;;;;;;5040175;28;20057;-75
2021/06/19 01:04:19;;;;;;;19.83;7.03;;;21.10;99.90;;;;;;5054384;28;20482;-76
2021/06/19 01:06:45;;;;;;;17.58;5.97;;;21.20;99.90;;;;;;5054685;28;20037;-76
2021/06/19 01:09:11;;;;;;;20.27;6.65;;;21.10;99.90;;;;;;5054299;28;20044;-76
2021/06/19 01:11:38;;;;;;;15.00;5.15;;;21.20;99.90;;;;;;5056370;28;20032;-76
2021/06/19 01:14:05;;;;;;;17.00;5.63;;;21.30;99.90;;;;;;5053608;28;20098;-76
2021/06/19 01:16:31;;;;;;;25.92;6.47;;;21.40;99.90;;;;;;5054613;28;20085;-76
2021/06/19 01:18:57;;;;;;;19.15;7.65;;;21.30;99.90;;;;;;5053746;28;20063;-76
2021/06/19 01:21:25;;;;;;;14.98;5.20;;;21.20;99.90;;;;;;5053342;28;20061;-76
2021/06/19 01:23:52;;;;;;;16.80;6.25;;;21.20;99.90;;;;;;5053574;28;20029;-77
2021/06/19 01:26:20;;;;;;;17.50;5.68;;;20.90;99.90;;;;;;5053433;28;20120;-77
2021/06/19 01:28:48;;;;;;;16.52;5.88;;;21.20;99.90;;;;;;5054886;28;20037;-77
2021/06/19 01:31:15;;;;;;;11.93;6.03;;;21.10;99.90;;;;;;5054770;28;20029;-77
2021/06/19 01:33:43;;;;;;;16.10;5.82;;;21.10;99.90;;;;;;5054464;28;20029;-76
2021/06/19 01:36:09;;;;;;;15.85;6.20;;;21.00;99.90;;;;;;5053554;28;20362;-77
2021/06/19 01:38:39;;;;;;;14.27;5.65;;;21.00;99.90;;;;;;5054756;28;20024;-77
2021/06/19 01:41:11;;;;;;;14.88;5.95;;;21.10;99.90;;;;;;5052805;28;20033;-75
2021/06/19 01:43:37;;;;;;;15.25;6.15;;;21.10;99.90;;;;;;5054478;28;20285;-76
2021/06/19 01:46:02;;;;;;;13.75;5.80;;;21.80;99.90;;;;;;5054328;28;20075;-77
2021/06/19 01:48:28;;;;;;;20.13;5.88;;;21.20;99.90;;;;;;5053430;28;20112;-77
2021/06/19 19:51:55;;;;;;;15.27;5.35;;;28.20;99.90;;;;;;5114478;27;20843;-78
2021/06/19 19:54:21;;;;;;;15.52;5.90;;;27.60;99.90;;;;;;5088353;28;20024;-77
2021/06/19 19:56:47;;;;;;;14.45;5.90;;;27.60;99.90;;;;;;5074470;28;20033;-77
2021/06/19 19:59:14;;;;;;;18.42;6.20;;;27.60;99.90;;;;;;5067770;28;20025;-77
2021/06/19 20:01:40;;;;;;;13.23;5.93;;;27.60;99.90;;;;;;5067917;28;20726;-76
2021/06/19 20:04:06;;;;;;;19.60;5.97;;;27.60;99.90;;;;;;5068080;28;20031;-76
2021/06/19 20:06:32;;;;;;;16.73;6.18;;;27.70;99.90;;;;;;5066773;28;20024;-77
2021/06/19 20:09:01;;;;;;;16.60;5.65;;;27.70;99.90;;;;;;5066916;28;20103;-75
2021/06/19 20:11:26;;;;;;;17.27;5.47;;;27.70;99.90;;;;;;5065776;28;20031;-77
2021/06/19 20:13:52;;;;;;;18.05;5.80;;;27.70;99.90;;;;;;5068406;28;20020;-77
2021/06/19 20:16:18;;;;;;;17.83;5.60;;;27.70;99.90;;;;;;5068927;28;20044;-79
2021/06/19 20:18:44;;;;;;;17.52;6.20;;;27.60;99.90;;;;;;5069486;28;20033;-80
2021/06/19 20:21:10;;;;;;;20.83;5.50;;;27.90;99.90;;;;;;5070779;28;20485;-76
2021/06/19 20:23:36;;;;;;;11.63;5.50;;;27.60;99.90;;;;;;5067844;28;20029;-79
2021/06/19 20:26:03;;;;;;;20.08;5.95;;;27.60;99.90;;;;;;5072564;28;20033;-79
2021/06/19 20:28:30;;;;;;;20.70;6.68;;;27.50;99.90;;;;;;5076766;28;20028;-81
2021/06/19 20:30:56;;;;;;;18.00;7.22;;;27.50;99.90;;;;;;5065814;28;20025;-79
2021/06/19 20:33:22;;;;;;;17.45;7.28;;;27.50;99.90;;;;;;5056783;28;20075;-78
2021/06/19 20:35:54;;;;;;;15.40;5.82;;;27.40;99.90;;;;;;5073895;28;20017;-79
2021/06/19 20:38:24;;;;;;;19.42;6.72;;;27.40;99.90;;;;;;5066788;28;20022;-79
2021/06/19 20:40:52;;;;;;;14.27;6.28;;;27.30;99.90;;;;;;5060814;28;20048;-79
2021/06/19 20:43:18;;;;;;;12.75;6.22;;;27.30;99.90;;;;;;5072301;28;20029;-78
2021/06/19 20:45:45;;;;;;;15.50;5.93;;;27.20;99.90;;;;;;5073081;28;20032;-78
2021/06/19 20:48:12;;;;;;;11.13;5.78;;;27.20;99.90;;;;;;5055782;28;20037;-78
2021/06/19 20:50:38;;;;;;;16.50;6.63;;;27.20;99.90;;;;;;5071574;28;20040;-76
2021/06/19 20:53:03;;;;;;;13.38;6.45;;;27.20;99.90;;;;;;5073612;28;20029;-77
2021/06/19 20:55:29;;;;;;;13.13;6.25;;;27.10;99.90;;;;;;5070900;28;20095;-78
2021/06/19 20:57:55;;;;;;;15.50;6.05;;;27.10;99.90;;;;;;5071133;28;20020;-77
2021/06/19 21:00:22;;;;;;;18.60;6.20;;;27.10;99.90;;;;;;5069545;28;20103;-81
2021/06/19 21:02:48;;;;;;;15.02;5.90;;;27.10;99.90;;;;;;5060591;28;20456;-81
2021/06/19 21:05:15;;;;;;;16.92;5.97;;;27.10;99.90;;;;;;5069954;22;20032;-73
2021/06/19 21:07:43;;;;;;;12.57;6.55;;;27.10;99.90;;;;;;5024979;28;20029;-75
2021/06/19 21:10:10;;;;;;;13.80;5.18;;;27.10;99.90;;;;;;5041215;28;20029;-74
2021/06/19 21:12:36;;;;;;;12.75;5.82;;;27.10;99.90;;;;;;5042773;28;20041;-76
2021/06/19 21:15:02;;;;;;;14.75;5.78;;;27.00;99.90;;;;;;5050394;28;20072;-75
2021/06/19 21:17:30;;;;;;;17.67;5.88;;;27.10;99.90;;;;;;5025441;28;20029;-74
2021/06/19 21:19:59;;;;;;;13.48;5.13;;;27.20;99.90;;;;;;5044595;28;20512;-75
2021/06/19 21:22:25;;;;;;;16.58;5.65;;;27.20;99.90;;;;;;5045720;28;20436;-76
2021/06/19 21:24:50;;;;;;;14.38;6.80;;;27.20;99.90;;;;;;5042010;28;20504;-75
2021/06/19 21:27:16;;;;;;;11.02;5.65;;;27.20;99.90;;;;;;5044817;28;20021;-75
2021/06/19 21:29:42;;;;;;;17.02;6.43;;;27.30;99.90;;;;;;5042189;28;20397;-75
2021/06/19 21:32:08;;;;;;;10.15;5.60;;;27.30;99.90;;;;;;5042939;28;20030;-74
2021/06/19 21:34:34;;;;;;;15.98;7.30;;;27.20;99.90;;;;;;5037566;28;20505;-75
2021/06/19 21:37:00;;;;;;;17.40;5.80;;;27.20;99.90;;;;;;5044331;28;20031;-74
2021/06/19 21:39:26;;;;;;;13.85;5.80;;;27.10;99.90;;;;;;5043127;28;20041;-75
2021/06/19 21:41:51;;;;;;;14.07;5.38;;;27.00;99.90;;;;;;5043082;28;20099;-74
2021/06/19 21:44:18;;;;;;;12.07;5.38;;;26.80;99.90;;;;;;5042886;28;20060;-73
2021/06/19 21:46:44;;;;;;;12.25;5.65;;;26.90;99.90;;;;;;5045602;28;20041;-74
2021/06/19 21:49:10;;;;;;;11.25;5.50;;;26.90;99.90;;;;;;5043979;28;20036;-73
2021/06/19 21:51:35;;;;;;;10.57;6.03;;;26.80;99.90;;;;;;5041898;28;20025;-73
2021/06/19 21:54:01;;;;;;;9.10;5.28;;;26.70;99.90;;;;;;5042567;28;20032;-74
2021/06/19 21:56:27;;;;;;;13.93;6.30;;;26.70;99.90;;;;;;5044436;28;20033;-74
2021/06/19 21:58:53;;;;;;;14.65;5.93;;;26.60;99.90;;;;;;5040716;28;20022;-75
2021/06/19 22:01:19;;;;;;;10.85;5.80;;;26.60;99.90;;;;;;5043615;28;20036;-74
2021/06/19 22:03:44;;;;;;;12.70;5.63;;;26.20;99.90;;;;;;5040745;28;20029;-74
2021/06/19 22:06:10;;;;;;;9.60;5.68;;;26.10;99.90;;;;;;5041786;28;20094;-74
2021/06/19 22:08:40;;;;;;;13.48;7.03;;;26.00;99.90;;;;;;5042444;28;20421;-75
2021/06/19 22:11:07;;;;;;;9.82;6.15;;;25.90;99.90;;;;;;5042291;28;20028;-74
2021/06/19 22:13:33;;;;;;;12.48;5.78;;;25.90;99.90;;;;;;5039951;28;20055;-73
2021/06/19 22:15:59;;;;;;;11.85;5.72;;;26.00;99.90;;;;;;5043663;28;20024;-74
2021/06/19 22:18:24;;;;;;;17.20;6.60;;;25.70;99.90;;;;;;5049500;28;20021;-75
2021/06/19 22:20:51;;;;;;;17.20;6.70;;;25.70;99.90;;;;;;5051185;28;20055;-74
2021/06/19 22:23:18;;;;;;;12.57;6.05;;;25.80;99.90;;;;;;5053008;28;20025;-75
2021/06/19 22:25:44;;;;;;;12.25;6.07;;;25.80;99.90;;;;;;5051867;28;20113;-74
2021/06/19 22:28:10;;;;;;;13.00;6.30;;;25.70;99.90;;;;;;5053223;28;20061;-74
2021/06/19 22:30:36;;;;;;;12.82;5.97;;;25.60;99.90;;;;;;5043203;28;20026;-74
2021/06/19 22:33:04;;;;;;;13.48;6.07;;;25.50;99.90;;;;;;5033643;28;20080;-74
2021/06/19 22:35:30;;;;;;;8.55;6.32;;;25.50;99.90;;;;;;5032651;28;20052;-73
2021/06/19 22:37:56;;;;;;;12.25;7.07;;;25.60;99.90;;;;;;5015245;28;20485;-74
2021/06/19 22:40:24;;;;;;;14.90;6.47;;;25.50;99.90;;;;;;5032766;28;20100;-73
2021/06/19 22:42:50;;;;;;;10.48;6.32;;;25.40;99.90;;;;;;5032953;28;20489;-74
2021/06/19 22:45:17;;;;;;;14.27;6.55;;;25.40;99.90;;;;;;5031178;28;20030;-74
2021/06/19 22:47:43;;;;;;;12.95;6.45;;;25.40;99.90;;;;;;5031592;28;20029;-74
2021/06/19 22:50:10;;;;;;;8.30;6.05;;;25.20;99.90;;;;;;5031916;28;20036;-74
2021/06/19 22:52:35;;;;;;;10.40;6.18;;;25.20;99.90;;;;;;5032615;28;20026;-74
2021/06/19 22:55:02;;;;;;;10.05;6.40;;;25.20;99.90;;;;;;5032701;28;20038;-74
2021/06/19 22:57:28;;;;;;;15.95;6.20;;;25.10;99.90;;;;;;5032611;28;20049;-74
2021/06/19 22:59:54;;;;;;;11.40;6.78;;;25.10;99.90;;;;;;5031669;28;20037;-74
2021/06/19 23:02:19;;;;;;;16.52;6.90;;;25.00;99.90;;;;;;5032327;28;20037;-74
2021/06/19 23:04:45;;;;;;;9.60;6.30;;;25.00;99.90;;;;;;5031124;28;20030;-74
2021/06/19 23:07:10;;;;;;;13.00;6.55;;;25.00;99.90;;;;;;5032280;28;20045;-74
2021/06/19 23:09:39;;;;;;;9.98;6.28;;;24.90;99.90;;;;;;5031779;28;20032;-74
2021/06/19 23:12:09;;;;;;;11.00;6.93;;;24.70;99.90;;;;;;5032317;28;20025;-74
2021/06/19 23:14:37;;;;;;;10.75;6.38;;;24.80;99.90;;;;;;5031901;28;20021;-74
2021/06/19 23:17:03;;;;;;;11.95;7.15;;;24.60;99.90;;;;;;5031015;28;20029;-74
2021/06/19 23:19:29;;;;;;;13.48;7.28;;;24.60;99.90;;;;;;5030982;28;20036;-75
2021/06/19 23:21:55;;;;;;;11.68;7.30;;;24.50;99.90;;;;;;5011425;28;20029;-74
2021/06/19 23:24:22;;;;;;;12.45;6.80;;;24.50;99.90;;;;;;5029812;28;20029;-74
2021/06/19 23:26:47;;;;;;;15.80;6.60;;;24.80;99.90;;;;;;5011911;28;20037;-74
2021/06/19 23:29:13;;;;;;;10.18;6.03;;;24.80;99.90;;;;;;5010454;28;20042;-74
2021/06/19 23:31:39;;;;;;;13.52;6.05;;;24.90;99.90;;;;;;5031161;28;20041;-74
2021/06/19 23:34:05;;;;;;;13.38;6.00;;;25.20;99.90;;;;;;5031851;28;20025;-74
2021/06/19 23:36:31;;;;;;;13.95;6.22;;;25.40;99.90;;;;;;5031504;28;20367;-74
2021/06/19 23:38:57;;;;;;;15.70;6.13;;;25.60;99.90;;;;;;5031210;28;20033;-73
2021/06/19 23:41:23;;;;;;;14.63;5.45;;;25.80;99.90;;;;;;5031710;28;20406;-74
2021/06/19 23:43:48;;;;;;;18.02;5.95;;;26.00;99.90;;;;;;5031715;28;20029;-74
2021/06/19 23:46:14;;;;;;;15.65;6.00;;;26.10;99.90;;;;;;5029027;28;20072;-74
2021/06/19 23:48:40;;;;;;;14.68;6.15;;;26.20;99.90;;;;;;5031659;28;20029;-73
2021/06/19 23:51:05;;;;;;;12.88;5.80;;;26.40;99.90;;;;;;5030824;28;20045;-74
2021/06/19 23:53:31;;;;;;;16.73;6.00;;;26.40;99.90;;;;;;5031748;28;20029;-73
2021/06/19 23:55:58;;;;;;;10.15;5.75;;;26.30;99.90;;;;;;5031645;28;20105;-74
2021/06/19 23:58:23;;;;;;;12.93;6.35;;;26.20;99.90;;;;;;5031719;28;20389;-74
